sensor_id;sensor_type;location;lat;lon;timestamp;P1;durP1;ratioP1;P2;durP2;ratioP2
8500;SDS011;4288;48.484;10.024;2023-02-19T00:01:05;1.50;;;1.10;;
8500;SDS011;4288;48.484;10.024;2023-02-19T00:03:34;0.90;;;0.90;;
8500;SDS011;4288;48.484;10.024;2023-02-19T00:06:02;1.10;;;0.90;;
8500;SDS011;4288;48.484;10.024;2023-02-19T00:08:31;1.30;;;1.20;;
8500;SDS011;4288;48.484;10.024;2023-02-19T00:10:59;1.80;;;1.43;;
8500;SDS011;4288;48.484;10.024;2023-02-19T00:13:28;1.23;;;1.13;;
8500;SDS011;4288;48.484;10.024;2023-02-19T00:15:56;1.80;;;1.20;;
8500;SDS011;4288;48.484;10.024;2023-02-19T00:18:24;3.10;;;1.63;;
8500;SDS011;4288;48.484;10.024;2023-02-19T00:20:55;2.60;;;1.03;;
8500;SDS011;4288;48.484;10.024;2023-02-19T00:23:22;3.13;;;1.20;;
8500;SDS011;4288;48.484;10.024;2023-02-19T00:25:49;3.23;;;1.13;;
8500;SDS011;4288;48.484;10.024;2023-02-19T00:28:16;2.40;;;1.50;;
8500;SDS011;4288;48.484;10.024;2023-02-19T00:30:43;1.40;;;1.30;;
8500;SDS011;4288;48.484;10.024;2023-02-19T00:33:12;2.03;;;1.30;;
8500;SDS011;4288;48.484;10.024;2023-02-19T00:35:39;3.93;;;1.20;;
8500;SDS011;4288;48.484;10.024;2023-02-19T00:38:06;1.23;;;0.97;;
8500;SDS011;4288;48.484;10.024;2023-02-19T00:40:33;1.77;;;1.30;;
8500;SDS011;4288;48.484;10.024;2023-02-19T00:43:00;1.90;;;1.20;;
8500;SDS011;4288;48.484;10.024;2023-02-19T00:45:27;1.50;;;1.40;;
8500;SDS011;4288;48.484;10.024;2023-02-19T00:47:54;1.33;;;1.23;;
8500;SDS011;4288;48.484;10.024;2023-02-19T00:50:23;1.90;;;1.10;;
8500;SDS011;4288;48.484;10.024;2023-02-19T00:52:50;4.10;;;1.40;;
8500;SDS011;4288;48.484;10.024;2023-02-19T00:55:17;1.53;;;1.10;;
8500;SDS011;4288;48.484;10.024;2023-02-19T00:57:44;1.70;;;0.83;;
8500;SDS011;4288;48.484;10.024;2023-02-19T01:00:11;1.77;;;1.10;;
8500;SDS011;4288;48.484;10.024;2023-02-19T01:02:39;1.10;;;1.00;;
8500;SDS011;4288;48.484;10.024;2023-02-19T01:05:06;1.17;;;1.10;;
8500;SDS011;4288;48.484;10.024;2023-02-19T01:07:35;1.43;;;1.00;;
8500;SDS011;4288;48.484;10.024;2023-02-19T01:10:03;1.73;;;1.07;;
8500;SDS011;4288;48.484;10.024;2023-02-19T01:12:31;2.30;;;1.30;;
8500;SDS011;4288;48.484;10.024;2023-02-19T01:14:58;1.63;;;1.30;;
8500;SDS011;4288;48.484;10.024;2023-02-19T01:17:25;1.10;;;0.87;;
8500;SDS011;4288;48.484;10.024;2023-02-19T01:19:52;1.30;;;1.20;;
8500;SDS011;4288;48.484;10.024;2023-02-19T01:22:20;1.00;;;0.90;;
8500;SDS011;4288;48.484;10.024;2023-02-19T01:24:48;1.87;;;1.30;;
8500;SDS011;4288;48.484;10.024;2023-02-19T01:27:15;1.40;;;1.03;;
8500;SDS011;4288;48.484;10.024;2023-02-19T01:29:42;1.53;;;1.10;;
8500;SDS011;4288;48.484;10.024;2023-02-19T01:32:09;1.43;;;1.00;;
8500;SDS011;4288;48.484;10.024;2023-02-19T01:34:36;1.50;;;1.10;;
8500;SDS011;4288;48.484;10.024;2023-02-19T01:37:03;4.07;;;1.27;;
8500;SDS011;4288;48.484;10.024;2023-02-19T01:39:35;1.50;;;1.30;;
8500;SDS011;4288;48.484;10.024;2023-02-19T01:42:04;1.87;;;1.10;;
8500;SDS011;4288;48.484;10.024;2023-02-19T01:47:46;3.17;;;1.30;;
8500;SDS011;4288;48.484;10.024;2023-02-19T01:50:35;1.50;;;1.30;;
8500;SDS011;4288;48.484;10.024;2023-02-19T01:53:07;1.83;;;1.20;;
8500;SDS011;4288;48.484;10.024;2023-02-19T01:55:37;0.90;;;0.90;;
8500;SDS011;4288;48.484;10.024;2023-02-19T01:58:06;1.77;;;1.23;;
8500;SDS011;4288;48.484;10.024;2023-02-19T02:00:35;1.47;;;1.30;;
8500;SDS011;4288;48.484;10.024;2023-02-19T02:03:02;1.00;;;1.00;;
8500;SDS011;4288;48.484;10.024;2023-02-19T02:05:34;1.30;;;1.20;;
8500;SDS011;4288;48.484;10.024;2023-02-19T02:08:09;1.60;;;1.17;;
8500;SDS011;4288;48.484;10.024;2023-02-19T02:10:57;1.70;;;1.13;;
8500;SDS011;4288;48.484;10.024;2023-02-19T02:13:25;1.10;;;0.83;;
8500;SDS011;4288;48.484;10.024;2023-02-19T02:15:58;3.10;;;1.40;;
8500;SDS011;4288;48.484;10.024;2023-02-19T02:18:38;2.23;;;1.17;;
8500;SDS011;4288;48.484;10.024;2023-02-19T02:21:26;1.70;;;1.13;;
8500;SDS011;4288;48.484;10.024;2023-02-19T02:24:33;2.20;;;1.30;;
8500;SDS011;4288;48.484;10.024;2023-02-19T02:27:27;1.50;;;1.40;;
8500;SDS011;4288;48.484;10.024;2023-02-19T02:30:17;4.20;;;1.90;;
8500;SDS011;4288;48.484;10.024;2023-02-19T02:33:10;1.53;;;1.10;;
8500;SDS011;4288;48.484;10.024;2023-02-19T02:35:47;2.20;;;1.47;;
8500;SDS011;4288;48.484;10.024;2023-02-19T02:38:19;2.03;;;1.30;;
8500;SDS011;4288;48.484;10.024;2023-02-19T02:40:52;1.30;;;1.20;;
8500;SDS011;4288;48.484;10.024;2023-02-19T02:43:21;3.80;;;1.60;;
8500;SDS011;4288;48.484;10.024;2023-02-19T02:45:49;1.80;;;1.47;;
8500;SDS011;4288;48.484;10.024;2023-02-19T02:48:24;3.70;;;1.13;;
8500;SDS011;4288;48.484;10.024;2023-02-19T02:50:59;2.73;;;1.60;;
8500;SDS011;4288;48.484;10.024;2023-02-19T02:53:32;3.50;;;1.10;;
8500;SDS011;4288;48.484;10.024;2023-02-19T02:56:23;2.03;;;1.20;;
8500;SDS011;4288;48.484;10.024;2023-02-19T02:58:51;1.70;;;1.10;;
8500;SDS011;4288;48.484;10.024;2023-02-19T03:01:22;2.40;;;1.40;;
8500;SDS011;4288;48.484;10.024;2023-02-19T03:04:13;1.43;;;1.17;;
8500;SDS011;4288;48.484;10.024;2023-02-19T03:06:46;1.47;;;1.30;;
8500;SDS011;4288;48.484;10.024;2023-02-19T03:09:17;2.00;;;1.27;;
8500;SDS011;4288;48.484;10.024;2023-02-19T03:11:54;2.77;;;1.63;;
8500;SDS011;4288;48.484;10.024;2023-02-19T03:14:44;3.60;;;1.97;;
8500;SDS011;4288;48.484;10.024;2023-02-19T03:17:37;1.53;;;1.00;;
8500;SDS011;4288;48.484;10.024;2023-02-19T03:20:25;0.97;;;0.87;;
8500;SDS011;4288;48.484;10.024;2023-02-19T03:22:53;3.57;;;1.30;;
8500;SDS011;4288;48.484;10.024;2023-02-19T03:25:25;2.60;;;1.10;;
8500;SDS011;4288;48.484;10.024;2023-02-19T03:28:14;2.67;;;1.70;;
8500;SDS011;4288;48.484;10.024;2023-02-19T03:31:05;1.63;;;1.50;;
8500;SDS011;4288;48.484;10.024;2023-02-19T03:33:37;1.77;;;1.37;;
8500;SDS011;4288;48.484;10.024;2023-02-19T03:36:08;1.43;;;1.33;;
8500;SDS011;4288;48.484;10.024;2023-02-19T03:38:40;1.77;;;1.37;;
8500;SDS011;4288;48.484;10.024;2023-02-19T03:41:15;11.03;;;1.27;;
8500;SDS011;4288;48.484;10.024;2023-02-19T03:43:51;1.17;;;1.07;;
8500;SDS011;4288;48.484;10.024;2023-02-19T03:46:29;1.03;;;0.93;;
8500;SDS011;4288;48.484;10.024;2023-02-19T03:49:07;1.90;;;1.43;;
8500;SDS011;4288;48.484;10.024;2023-02-19T03:51:49;1.33;;;1.20;;
8500;SDS011;4288;48.484;10.024;2023-02-19T03:54:21;1.33;;;1.23;;
8500;SDS011;4288;48.484;10.024;2023-02-19T03:56:58;1.20;;;1.10;;
8500;SDS011;4288;48.484;10.024;2023-02-19T03:59:31;0.83;;;0.83;;
8500;SDS011;4288;48.484;10.024;2023-02-19T04:02:05;2.07;;;1.50;;
8500;SDS011;4288;48.484;10.024;2023-02-19T04:04:40;1.30;;;1.20;;
8500;SDS011;4288;48.484;10.024;2023-02-19T04:07:14;1.93;;;1.30;;
8500;SDS011;4288;48.484;10.024;2023-02-19T04:09:42;1.47;;;1.07;;
8500;SDS011;4288;48.484;10.024;2023-02-19T04:12:13;1.07;;;0.97;;
8500;SDS011;4288;48.484;10.024;2023-02-19T04:14:43;1.17;;;1.07;;
8500;SDS011;4288;48.484;10.024;2023-02-19T04:17:16;1.73;;;1.10;;
8500;SDS011;4288;48.484;10.024;2023-02-19T04:19:51;2.00;;;1.53;;
8500;SDS011;4288;48.484;10.024;2023-02-19T04:22:19;1.33;;;1.10;;
8500;SDS011;4288;48.484;10.024;2023-02-19T04:24:49;2.10;;;1.20;;
8500;SDS011;4288;48.484;10.024;2023-02-19T04:27:19;1.27;;;1.00;;
8500;SDS011;4288;48.484;10.024;2023-02-19T04:29:46;1.90;;;1.13;;
8500;SDS011;4288;48.484;10.024;2023-02-19T04:32:14;0.83;;;0.80;;
8500;SDS011;4288;48.484;10.024;2023-02-19T04:34:41;1.33;;;1.20;;
8500;SDS011;4288;48.484;10.024;2023-02-19T04:37:09;1.10;;;1.00;;
8500;SDS011;4288;48.484;10.024;2023-02-19T04:39:37;1.63;;;1.20;;
8500;SDS011;4288;48.484;10.024;2023-02-19T04:42:04;1.30;;;1.00;;
8500;SDS011;4288;48.484;10.024;2023-02-19T04:44:31;2.67;;;1.13;;
8500;SDS011;4288;48.484;10.024;2023-02-19T04:46:59;0.97;;;0.90;;
8500;SDS011;4288;48.484;10.024;2023-02-19T04:49:26;1.67;;;1.10;;
8500;SDS011;4288;48.484;10.024;2023-02-19T04:51:54;2.03;;;0.90;;
8500;SDS011;4288;48.484;10.024;2023-02-19T04:54:22;1.10;;;0.80;;
8500;SDS011;4288;48.484;10.024;2023-02-19T04:56:49;1.20;;;1.10;;
8500;SDS011;4288;48.484;10.024;2023-02-19T04:59:16;1.10;;;1.00;;
8500;SDS011;4288;48.484;10.024;2023-02-19T05:01:43;0.77;;;0.70;;
8500;SDS011;4288;48.484;10.024;2023-02-19T05:04:10;1.67;;;1.00;;
8500;SDS011;4288;48.484;10.024;2023-02-19T05:06:38;1.07;;;1.07;;
8500;SDS011;4288;48.484;10.024;2023-02-19T05:09:05;1.10;;;1.00;;
8500;SDS011;4288;48.484;10.024;2023-02-19T05:11:34;1.10;;;0.93;;
8500;SDS011;4288;48.484;10.024;2023-02-19T05:14:01;0.80;;;0.80;;
8500;SDS011;4288;48.484;10.024;2023-02-19T05:16:28;1.37;;;1.13;;
8500;SDS011;4288;48.484;10.024;2023-02-19T05:18:55;0.90;;;0.90;;
8500;SDS011;4288;48.484;10.024;2023-02-19T05:21:22;4.00;;;1.13;;
8500;SDS011;4288;48.484;10.024;2023-02-19T05:23:49;2.50;;;1.20;;
8500;SDS011;4288;48.484;10.024;2023-02-19T05:26:17;1.60;;;1.40;;
8500;SDS011;4288;48.484;10.024;2023-02-19T05:28:50;4.60;;;1.13;;
8500;SDS011;4288;48.484;10.024;2023-02-19T05:31:18;1.40;;;1.30;;
8500;SDS011;4288;48.484;10.024;2023-02-19T05:33:46;1.40;;;1.10;;
8500;SDS011;4288;48.484;10.024;2023-02-19T05:36:15;1.43;;;1.27;;
8500;SDS011;4288;48.484;10.024;2023-02-19T05:38:44;2.00;;;0.90;;
8500;SDS011;4288;48.484;10.024;2023-02-19T05:41:12;1.30;;;1.20;;
8500;SDS011;4288;48.484;10.024;2023-02-19T05:43:42;1.70;;;1.40;;
8500;SDS011;4288;48.484;10.024;2023-02-19T05:46:13;1.23;;;1.00;;
8500;SDS011;4288;48.484;10.024;2023-02-19T05:48:43;1.53;;;1.20;;
8500;SDS011;4288;48.484;10.024;2023-02-19T05:51:11;2.50;;;1.20;;
8500;SDS011;4288;48.484;10.024;2023-02-19T05:53:40;1.37;;;0.90;;
8500;SDS011;4288;48.484;10.024;2023-02-19T05:56:23;5.93;;;1.10;;
8500;SDS011;4288;48.484;10.024;2023-02-19T05:58:56;1.97;;;1.23;;
8500;SDS011;4288;48.484;10.024;2023-02-19T06:01:26;0.93;;;0.83;;
8500;SDS011;4288;48.484;10.024;2023-02-19T06:03:55;1.23;;;1.13;;
8500;SDS011;4288;48.484;10.024;2023-02-19T06:06:23;1.17;;;1.00;;
8500;SDS011;4288;48.484;10.024;2023-02-19T06:08:51;1.63;;;1.13;;
8500;SDS011;4288;48.484;10.024;2023-02-19T06:11:18;1.27;;;1.17;;
8500;SDS011;4288;48.484;10.024;2023-02-19T06:13:46;1.00;;;0.90;;
8500;SDS011;4288;48.484;10.024;2023-02-19T06:16:14;1.00;;;0.90;;
8500;SDS011;4288;48.484;10.024;2023-02-19T06:18:44;1.47;;;1.37;;
8500;SDS011;4288;48.484;10.024;2023-02-19T06:21:11;1.33;;;1.00;;
8500;SDS011;4288;48.484;10.024;2023-02-19T06:23:40;0.83;;;0.83;;
8500;SDS011;4288;48.484;10.024;2023-02-19T06:26:08;1.00;;;0.90;;
8500;SDS011;4288;48.484;10.024;2023-02-19T06:28:37;0.87;;;0.87;;
8500;SDS011;4288;48.484;10.024;2023-02-19T06:31:06;0.93;;;0.93;;
8500;SDS011;4288;48.484;10.024;2023-02-19T06:33:34;0.93;;;0.93;;
8500;SDS011;4288;48.484;10.024;2023-02-19T06:36:06;0.93;;;0.80;;
8500;SDS011;4288;48.484;10.024;2023-02-19T06:38:37;0.83;;;0.80;;
8500;SDS011;4288;48.484;10.024;2023-02-19T06:41:04;1.63;;;0.70;;
8500;SDS011;4288;48.484;10.024;2023-02-19T06:43:33;0.63;;;0.60;;
8500;SDS011;4288;48.484;10.024;2023-02-19T06:46:01;0.73;;;0.60;;
8500;SDS011;4288;48.484;10.024;2023-02-19T06:48:31;0.60;;;0.60;;
8500;SDS011;4288;48.484;10.024;2023-02-19T06:50:59;6.00;;;1.30;;
8500;SDS011;4288;48.484;10.024;2023-02-19T06:53:27;1.27;;;0.90;;
8500;SDS011;4288;48.484;10.024;2023-02-19T06:55:55;0.90;;;0.80;;
8500;SDS011;4288;48.484;10.024;2023-02-19T06:58:24;1.10;;;0.80;;
8500;SDS011;4288;48.484;10.024;2023-02-19T07:00:51;1.00;;;0.80;;
8500;SDS011;4288;48.484;10.024;2023-02-19T07:03:19;2.90;;;0.80;;
8500;SDS011;4288;48.484;10.024;2023-02-19T07:05:46;0.70;;;0.70;;
8500;SDS011;4288;48.484;10.024;2023-02-19T07:08:14;0.70;;;0.70;;
8500;SDS011;4288;48.484;10.024;2023-02-19T07:10:43;1.30;;;0.60;;
8500;SDS011;4288;48.484;10.024;2023-02-19T07:13:10;0.60;;;0.60;;
8500;SDS011;4288;48.484;10.024;2023-02-19T07:15:37;0.70;;;0.50;;
8500;SDS011;4288;48.484;10.024;2023-02-19T07:18:05;0.73;;;0.60;;
8500;SDS011;4288;48.484;10.024;2023-02-19T07:20:34;2.87;;;0.70;;
8500;SDS011;4288;48.484;10.024;2023-02-19T07:23:02;1.00;;;0.80;;
8500;SDS011;4288;48.484;10.024;2023-02-19T07:25:29;1.83;;;0.60;;
8500;SDS011;4288;48.484;10.024;2023-02-19T07:27:58;0.40;;;0.40;;
8500;SDS011;4288;48.484;10.024;2023-02-19T07:30:25;0.70;;;0.50;;
8500;SDS011;4288;48.484;10.024;2023-02-19T07:32:52;0.40;;;0.40;;
8500;SDS011;4288;48.484;10.024;2023-02-19T07:35:19;0.40;;;0.40;;
8500;SDS011;4288;48.484;10.024;2023-02-19T07:37:46;0.40;;;0.40;;
8500;SDS011;4288;48.484;10.024;2023-02-19T07:40:13;0.50;;;0.50;;
8500;SDS011;4288;48.484;10.024;2023-02-19T07:42:40;0.43;;;0.43;;
8500;SDS011;4288;48.484;10.024;2023-02-19T07:45:09;0.50;;;0.50;;
8500;SDS011;4288;48.484;10.024;2023-02-19T07:47:36;0.40;;;0.40;;
8500;SDS011;4288;48.484;10.024;2023-02-19T07:50:03;0.50;;;0.50;;
8500;SDS011;4288;48.484;10.024;2023-02-19T07:52:32;0.57;;;0.57;;
8500;SDS011;4288;48.484;10.024;2023-02-19T07:54:59;0.53;;;0.50;;
8500;SDS011;4288;48.484;10.024;2023-02-19T07:57:26;0.60;;;0.50;;
8500;SDS011;4288;48.484;10.024;2023-02-19T07:59:55;0.50;;;0.50;;
8500;SDS011;4288;48.484;10.024;2023-02-19T08:02:24;0.40;;;0.40;;
8500;SDS011;4288;48.484;10.024;2023-02-19T08:05:08;0.47;;;0.47;;
8500;SDS011;4288;48.484;10.024;2023-02-19T08:07:36;0.73;;;0.50;;
8500;SDS011;4288;48.484;10.024;2023-02-19T08:10:03;0.70;;;0.50;;
8500;SDS011;4288;48.484;10.024;2023-02-19T08:12:45;0.50;;;0.50;;
8500;SDS011;4288;48.484;10.024;2023-02-19T08:15:38;0.53;;;0.50;;
8500;SDS011;4288;48.484;10.024;2023-02-19T08:18:07;0.80;;;0.60;;
8500;SDS011;4288;48.484;10.024;2023-02-19T08:20:35;0.60;;;0.50;;
8500;SDS011;4288;48.484;10.024;2023-02-19T08:23:02;1.10;;;0.57;;
8500;SDS011;4288;48.484;10.024;2023-02-19T08:25:30;0.50;;;0.50;;
8500;SDS011;4288;48.484;10.024;2023-02-19T08:27:58;1.00;;;0.60;;
8500;SDS011;4288;48.484;10.024;2023-02-19T08:30:25;2.63;;;0.60;;
8500;SDS011;4288;48.484;10.024;2023-02-19T08:32:52;2.07;;;0.67;;
8500;SDS011;4288;48.484;10.024;2023-02-19T08:35:21;0.50;;;0.50;;
8500;SDS011;4288;48.484;10.024;2023-02-19T08:37:48;0.50;;;0.50;;
8500;SDS011;4288;48.484;10.024;2023-02-19T08:40:15;0.60;;;0.53;;
8500;SDS011;4288;48.484;10.024;2023-02-19T08:42:43;0.70;;;0.70;;
8500;SDS011;4288;48.484;10.024;2023-02-19T08:45:10;0.50;;;0.50;;
8500;SDS011;4288;48.484;10.024;2023-02-19T08:47:37;0.60;;;0.60;;
8500;SDS011;4288;48.484;10.024;2023-02-19T08:50:05;0.60;;;0.60;;
8500;SDS011;4288;48.484;10.024;2023-02-19T08:52:34;1.60;;;0.67;;
8500;SDS011;4288;48.484;10.024;2023-02-19T08:55:02;0.87;;;0.80;;
8500;SDS011;4288;48.484;10.024;2023-02-19T08:57:30;1.00;;;0.87;;
8500;SDS011;4288;48.484;10.024;2023-02-19T09:00:00;0.70;;;0.70;;
8500;SDS011;4288;48.484;10.024;2023-02-19T09:02:27;0.60;;;0.60;;
8500;SDS011;4288;48.484;10.024;2023-02-19T09:04:55;0.50;;;0.50;;
8500;SDS011;4288;48.484;10.024;2023-02-19T09:07:22;0.60;;;0.60;;
8500;SDS011;4288;48.484;10.024;2023-02-19T09:09:50;2.50;;;0.50;;
8500;SDS011;4288;48.484;10.024;2023-02-19T09:12:18;0.60;;;0.60;;
8500;SDS011;4288;48.484;10.024;2023-02-19T09:14:45;0.53;;;0.53;;
8500;SDS011;4288;48.484;10.024;2023-02-19T09:17:12;0.50;;;0.50;;
8500;SDS011;4288;48.484;10.024;2023-02-19T09:19:40;0.67;;;0.67;;
8500;SDS011;4288;48.484;10.024;2023-02-19T09:22:07;0.50;;;0.50;;
8500;SDS011;4288;48.484;10.024;2023-02-19T09:24:34;0.60;;;0.60;;
8500;SDS011;4288;48.484;10.024;2023-02-19T09:27:02;0.50;;;0.50;;
8500;SDS011;4288;48.484;10.024;2023-02-19T09:29:30;0.60;;;0.60;;
8500;SDS011;4288;48.484;10.024;2023-02-19T09:31:59;0.57;;;0.57;;
8500;SDS011;4288;48.484;10.024;2023-02-19T09:34:26;0.60;;;0.60;;
8500;SDS011;4288;48.484;10.024;2023-02-19T09:36:54;0.50;;;0.50;;
8500;SDS011;4288;48.484;10.024;2023-02-19T09:39:21;2.40;;;0.60;;
8500;SDS011;4288;48.484;10.024;2023-02-19T09:41:49;0.60;;;0.50;;
8500;SDS011;4288;48.484;10.024;2023-02-19T09:44:23;0.50;;;0.50;;
8500;SDS011;4288;48.484;10.024;2023-02-19T09:46:55;1.63;;;0.63;;
8500;SDS011;4288;48.484;10.024;2023-02-19T09:49:27;1.17;;;0.93;;
8500;SDS011;4288;48.484;10.024;2023-02-19T09:51:59;0.63;;;0.63;;
8500;SDS011;4288;48.484;10.024;2023-02-19T09:54:34;0.70;;;0.70;;
8500;SDS011;4288;48.484;10.024;2023-02-19T09:57:03;0.50;;;0.50;;
8500;SDS011;4288;48.484;10.024;2023-02-19T09:59:36;1.73;;;0.67;;
8500;SDS011;4288;48.484;10.024;2023-02-19T10:02:11;0.60;;;0.60;;
8500;SDS011;4288;48.484;10.024;2023-02-19T10:04:41;1.07;;;0.67;;
8500;SDS011;4288;48.484;10.024;2023-02-19T10:07:10;1.27;;;0.50;;
8500;SDS011;4288;48.484;10.024;2023-02-19T10:09:38;0.53;;;0.50;;
8500;SDS011;4288;48.484;10.024;2023-02-19T10:12:11;3.27;;;0.60;;
8500;SDS011;4288;48.484;10.024;2023-02-19T10:14:43;0.63;;;0.57;;
8500;SDS011;4288;48.484;10.024;2023-02-19T10:17:16;0.63;;;0.63;;
8500;SDS011;4288;48.484;10.024;2023-02-19T10:19:48;0.50;;;0.50;;
8500;SDS011;4288;48.484;10.024;2023-02-19T10:22:16;0.80;;;0.80;;
8500;SDS011;4288;48.484;10.024;2023-02-19T10:24:43;0.57;;;0.57;;
8500;SDS011;4288;48.484;10.024;2023-02-19T10:27:15;0.60;;;0.57;;
8500;SDS011;4288;48.484;10.024;2023-02-19T10:29:45;0.70;;;0.60;;
8500;SDS011;4288;48.484;10.024;2023-02-19T10:32:15;1.00;;;0.70;;
8500;SDS011;4288;48.484;10.024;2023-02-19T10:34:46;0.50;;;0.50;;
8500;SDS011;4288;48.484;10.024;2023-02-19T10:37:14;0.60;;;0.60;;
8500;SDS011;4288;48.484;10.024;2023-02-19T10:39:44;1.57;;;0.60;;
8500;SDS011;4288;48.484;10.024;2023-02-19T10:42:13;0.80;;;0.50;;
8500;SDS011;4288;48.484;10.024;2023-02-19T10:44:48;2.63;;;0.87;;
8500;SDS011;4288;48.484;10.024;2023-02-19T10:47:20;1.23;;;0.80;;
8500;SDS011;4288;48.484;10.024;2023-02-19T10:49:51;1.80;;;0.80;;
8500;SDS011;4288;48.484;10.024;2023-02-19T10:52:20;2.47;;;0.70;;
8500;SDS011;4288;48.484;10.024;2023-02-19T10:54:54;0.70;;;0.60;;
8500;SDS011;4288;48.484;10.024;2023-02-19T10:57:38;2.17;;;0.67;;
8500;SDS011;4288;48.484;10.024;2023-02-19T11:00:18;0.90;;;0.70;;
8500;SDS011;4288;48.484;10.024;2023-02-19T11:02:50;0.93;;;0.70;;
8500;SDS011;4288;48.484;10.024;2023-02-19T11:05:48;3.90;;;0.73;;
8500;SDS011;4288;48.484;10.024;2023-02-19T11:08:21;2.30;;;0.50;;
8500;SDS011;4288;48.484;10.024;2023-02-19T11:10:49;1.70;;;1.03;;
8500;SDS011;4288;48.484;10.024;2023-02-19T11:13:18;0.80;;;0.80;;
8500;SDS011;4288;48.484;10.024;2023-02-19T11:15:55;0.70;;;0.50;;
8500;SDS011;4288;48.484;10.024;2023-02-19T11:18:24;3.50;;;1.10;;
8500;SDS011;4288;48.484;10.024;2023-02-19T11:20:55;0.77;;;0.50;;
8500;SDS011;4288;48.484;10.024;2023-02-19T11:23:24;8.00;;;1.17;;
8500;SDS011;4288;48.484;10.024;2023-02-19T11:25:55;2.50;;;0.90;;
8500;SDS011;4288;48.484;10.024;2023-02-19T11:28:27;2.10;;;0.60;;
8500;SDS011;4288;48.484;10.024;2023-02-19T11:33:55;3.97;;;0.70;;
8500;SDS011;4288;48.484;10.024;2023-02-19T11:36:25;1.83;;;0.80;;
8500;SDS011;4288;48.484;10.024;2023-02-19T11:38:56;1.00;;;0.70;;
8500;SDS011;4288;48.484;10.024;2023-02-19T11:44:46;4.10;;;0.80;;
8500;SDS011;4288;48.484;10.024;2023-02-19T11:47:36;1.17;;;0.60;;
8500;SDS011;4288;48.484;10.024;2023-02-19T11:50:41;2.30;;;0.63;;
8500;SDS011;4288;48.484;10.024;2023-02-19T11:53:24;1.93;;;0.77;;
8500;SDS011;4288;48.484;10.024;2023-02-19T11:56:00;1.13;;;0.90;;
8500;SDS011;4288;48.484;10.024;2023-02-19T12:01:43;1.63;;;0.60;;
8500;SDS011;4288;48.484;10.024;2023-02-19T12:08:05;0.60;;;0.57;;
8500;SDS011;4288;48.484;10.024;2023-02-19T12:11:03;3.30;;;0.80;;
8500;SDS011;4288;48.484;10.024;2023-02-19T12:13:52;1.10;;;0.90;;
8500;SDS011;4288;48.484;10.024;2023-02-19T12:16:57;2.27;;;0.70;;
8500;SDS011;4288;48.484;10.024;2023-02-19T12:19:36;2.43;;;0.67;;
8500;SDS011;4288;48.484;10.024;2023-02-19T12:22:27;2.87;;;1.03;;
8500;SDS011;4288;48.484;10.024;2023-02-19T12:25:04;0.60;;;0.60;;
8500;SDS011;4288;48.484;10.024;2023-02-19T12:28:07;3.70;;;0.63;;
8500;SDS011;4288;48.484;10.024;2023-02-19T12:31:14;1.07;;;0.50;;
8500;SDS011;4288;48.484;10.024;2023-02-19T12:34:29;0.60;;;0.40;;
8500;SDS011;4288;48.484;10.024;2023-02-19T12:37:12;3.30;;;0.70;;
8500;SDS011;4288;48.484;10.024;2023-02-19T12:39:59;4.50;;;0.77;;
8500;SDS011;4288;48.484;10.024;2023-02-19T12:42:47;2.70;;;0.60;;
8500;SDS011;4288;48.484;10.024;2023-02-19T12:45:29;1.10;;;0.57;;
8500;SDS011;4288;48.484;10.024;2023-02-19T12:48:04;4.73;;;0.70;;
8500;SDS011;4288;48.484;10.024;2023-02-19T12:50:38;1.40;;;0.60;;
8500;SDS011;4288;48.484;10.024;2023-02-19T12:53:09;1.03;;;0.60;;
8500;SDS011;4288;48.484;10.024;2023-02-19T12:55:43;1.23;;;0.57;;
8500;SDS011;4288;48.484;10.024;2023-02-19T12:58:23;1.50;;;0.70;;
8500;SDS011;4288;48.484;10.024;2023-02-19T13:00:56;1.33;;;0.50;;
8500;SDS011;4288;48.484;10.024;2023-02-19T13:03:27;0.97;;;0.77;;
8500;SDS011;4288;48.484;10.024;2023-02-19T13:06:00;0.53;;;0.50;;
8500;SDS011;4288;48.484;10.024;2023-02-19T13:08:35;2.33;;;0.80;;
8500;SDS011;4288;48.484;10.024;2023-02-19T13:11:09;2.30;;;0.70;;
8500;SDS011;4288;48.484;10.024;2023-02-19T13:13:44;10.13;;;1.17;;
8500;SDS011;4288;48.484;10.024;2023-02-19T13:16:16;1.63;;;0.60;;
8500;SDS011;4288;48.484;10.024;2023-02-19T13:18:47;1.30;;;0.80;;
8500;SDS011;4288;48.484;10.024;2023-02-19T13:21:18;0.80;;;0.70;;
8500;SDS011;4288;48.484;10.024;2023-02-19T13:24:01;0.90;;;0.60;;
8500;SDS011;4288;48.484;10.024;2023-02-19T13:26:47;1.30;;;0.73;;
8500;SDS011;4288;48.484;10.024;2023-02-19T13:29:36;2.40;;;0.70;;
8500;SDS011;4288;48.484;10.024;2023-02-19T13:32:24;0.93;;;0.60;;
8500;SDS011;4288;48.484;10.024;2023-02-19T13:35:15;1.93;;;0.87;;
8500;SDS011;4288;48.484;10.024;2023-02-19T13:37:59;2.43;;;0.60;;
8500;SDS011;4288;48.484;10.024;2023-02-19T13:40:29;1.30;;;0.57;;
8500;SDS011;4288;48.484;10.024;2023-02-19T13:43:00;1.27;;;0.50;;
8500;SDS011;4288;48.484;10.024;2023-02-19T13:45:31;1.67;;;0.90;;
8500;SDS011;4288;48.484;10.024;2023-02-19T13:48:14;2.63;;;0.83;;
8500;SDS011;4288;48.484;10.024;2023-02-19T13:51:36;1.57;;;1.37;;
8500;SDS011;4288;48.484;10.024;2023-02-19T13:54:25;2.30;;;0.90;;
8500;SDS011;4288;48.484;10.024;2023-02-19T13:59:54;1.33;;;0.70;;
8500;SDS011;4288;48.484;10.024;2023-02-19T14:02:24;1.90;;;0.83;;
8500;SDS011;4288;48.484;10.024;2023-02-19T14:04:56;1.13;;;0.90;;
8500;SDS011;4288;48.484;10.024;2023-02-19T14:16:47;5.13;;;0.70;;
8500;SDS011;4288;48.484;10.024;2023-02-19T14:25:44;3.00;;;1.00;;
8500;SDS011;4288;48.484;10.024;2023-02-19T14:28:27;1.47;;;0.60;;
8500;SDS011;4288;48.484;10.024;2023-02-19T14:31:02;1.00;;;0.60;;
8500;SDS011;4288;48.484;10.024;2023-02-19T14:33:42;2.30;;;0.73;;
8500;SDS011;4288;48.484;10.024;2023-02-19T14:36:17;2.93;;;0.63;;
8500;SDS011;4288;48.484;10.024;2023-02-19T14:39:05;1.47;;;0.50;;
8500;SDS011;4288;48.484;10.024;2023-02-19T14:41:40;1.77;;;0.73;;
8500;SDS011;4288;48.484;10.024;2023-02-19T14:44:13;0.83;;;0.70;;
8500;SDS011;4288;48.484;10.024;2023-02-19T14:46:45;2.10;;;0.70;;
8500;SDS011;4288;48.484;10.024;2023-02-19T14:49:23;5.73;;;0.60;;
8500;SDS011;4288;48.484;10.024;2023-02-19T14:51:56;2.37;;;1.00;;
8500;SDS011;4288;48.484;10.024;2023-02-19T14:54:32;1.70;;;0.70;;
8500;SDS011;4288;48.484;10.024;2023-02-19T14:57:09;4.83;;;0.90;;
8500;SDS011;4288;48.484;10.024;2023-02-19T14:59:51;1.60;;;0.90;;
8500;SDS011;4288;48.484;10.024;2023-02-19T15:02:20;0.70;;;0.50;;
8500;SDS011;4288;48.484;10.024;2023-02-19T15:04:50;2.73;;;0.70;;
8500;SDS011;4288;48.484;10.024;2023-02-19T15:07:19;0.70;;;0.50;;
8500;SDS011;4288;48.484;10.024;2023-02-19T15:09:51;2.60;;;0.60;;
8500;SDS011;4288;48.484;10.024;2023-02-19T15:12:23;1.63;;;0.60;;
8500;SDS011;4288;48.484;10.024;2023-02-19T15:14:55;1.00;;;0.70;;
8500;SDS011;4288;48.484;10.024;2023-02-19T15:17:27;1.73;;;0.70;;
8500;SDS011;4288;48.484;10.024;2023-02-19T15:19:58;0.67;;;0.60;;
8500;SDS011;4288;48.484;10.024;2023-02-19T15:22:30;1.23;;;0.70;;
8500;SDS011;4288;48.484;10.024;2023-02-19T15:25:00;2.00;;;0.80;;
8500;SDS011;4288;48.484;10.024;2023-02-19T15:27:28;9.20;;;0.63;;
8500;SDS011;4288;48.484;10.024;2023-02-19T15:29:56;1.30;;;0.77;;
8500;SDS011;4288;48.484;10.024;2023-02-19T15:32:25;3.67;;;0.70;;
8500;SDS011;4288;48.484;10.024;2023-02-19T15:34:53;4.77;;;0.70;;
8500;SDS011;4288;48.484;10.024;2023-02-19T15:37:22;4.00;;;0.80;;
8500;SDS011;4288;48.484;10.024;2023-02-19T15:39:50;3.53;;;1.10;;
8500;SDS011;4288;48.484;10.024;2023-02-19T15:42:23;2.13;;;0.80;;
8500;SDS011;4288;48.484;10.024;2023-02-19T15:44:54;11.23;;;0.70;;
8500;SDS011;4288;48.484;10.024;2023-02-19T15:47:26;1.40;;;0.80;;
8500;SDS011;4288;48.484;10.024;2023-02-19T15:50:02;3.10;;;0.70;;
8500;SDS011;4288;48.484;10.024;2023-02-19T15:52:38;0.70;;;0.60;;
8500;SDS011;4288;48.484;10.024;2023-02-19T15:55:20;2.53;;;0.67;;
8500;SDS011;4288;48.484;10.024;2023-02-19T15:57:59;1.67;;;0.80;;
8500;SDS011;4288;48.484;10.024;2023-02-19T16:00:34;2.60;;;0.80;;
8500;SDS011;4288;48.484;10.024;2023-02-19T16:03:07;1.73;;;0.80;;
8500;SDS011;4288;48.484;10.024;2023-02-19T16:05:43;1.63;;;0.70;;
8500;SDS011;4288;48.484;10.024;2023-02-19T16:08:16;2.60;;;0.80;;